sensor_id;sensor_type;location;lat;lon;timestamp;pressure;altitude;pressure_sealevel;temperature
66372;BMP180;53168;51.146;17.120;2023-05-10T00:00:18;100297.40;;;8.80
66372;BMP180;53168;51.146;17.120;2023-05-10T00:03:11;100292.00;;;8.78
66372;BMP180;53168;51.146;17.120;2023-05-10T00:05:44;100292.40;;;8.70
66372;BMP180;53168;51.146;17.120;2023-05-10T00:08:17;100288.20;;;8.68
66372;BMP180;53168;51.146;17.120;2023-05-10T00:10:51;100289.40;;;8.60
66372;BMP180;53168;51.146;17.120;2023-05-10T00:13:25;100287.20;;;8.60
66372;BMP180;53168;51.146;17.120;2023-05-10T00:15:58;100282.60;;;8.50
66372;BMP180;53168;51.146;17.120;2023-05-10T00:18:31;100280.00;;;8.50
66372;BMP180;53168;51.146;17.120;2023-05-10T00:21:05;100280.80;;;8.40
66372;BMP180;53168;51.146;17.120;2023-05-10T00:23:38;100280.00;;;8.38
66372;BMP180;53168;51.146;17.120;2023-05-10T00:26:11;100278.00;;;8.30
66372;BMP180;53168;51.146;17.120;2023-05-10T00:28:45;100276.20;;;8.30
66372;BMP180;53168;51.146;17.120;2023-05-10T00:31:19;100278.00;;;8.20
66372;BMP180;53168;51.146;17.120;2023-05-10T00:33:52;100275.20;;;8.20
66372;BMP180;53168;51.146;17.120;2023-05-10T00:36:25;100280.40;;;8.20
66372;BMP180;53168;51.146;17.120;2023-05-10T00:38:59;100277.40;;;8.10
66372;BMP180;53168;51.146;17.120;2023-05-10T00:41:33;100275.60;;;8.10
66372;BMP180;53168;51.146;17.120;2023-05-10T00:44:06;100273.00;;;8.10
66372;BMP180;53168;51.146;17.120;2023-05-10T00:46:39;100273.20;;;8.08
66372;BMP180;53168;51.146;17.120;2023-05-10T00:49:13;100271.40;;;8.00
66372;BMP180;53168;51.146;17.120;2023-05-10T00:51:46;100269.20;;;8.00
66372;BMP180;53168;51.146;17.120;2023-05-10T00:54:19;100269.20;;;8.00
66372;BMP180;53168;51.146;17.120;2023-05-10T00:56:53;100262.20;;;7.90
66372;BMP180;53168;51.146;17.120;2023-05-10T00:59:29;100265.00;;;7.90
66372;BMP180;53168;51.146;17.120;2023-05-10T01:02:04;100259.60;;;7.82
66372;BMP180;53168;51.146;17.120;2023-05-10T01:04:38;100257.80;;;7.80
66372;BMP180;53168;51.146;17.120;2023-05-10T01:07:12;100254.80;;;7.74
66372;BMP180;53168;51.146;17.120;2023-05-10T01:09:45;100262.00;;;7.70
66372;BMP180;53168;51.146;17.120;2023-05-10T01:12:20;100259.40;;;7.70
66372;BMP180;53168;51.146;17.120;2023-05-10T01:14:54;100258.40;;;7.60
66372;BMP180;53168;51.146;17.120;2023-05-10T01:17:28;100255.40;;;7.58
66372;BMP180;53168;51.146;17.120;2023-05-10T01:20:02;100253.40;;;7.60
66372;BMP180;53168;51.146;17.120;2023-05-10T01:22:55;100254.80;;;7.54
66372;BMP180;53168;51.146;17.120;2023-05-10T01:29:17;100248.20;;;7.56
66372;BMP180;53168;51.146;17.120;2023-05-10T01:32:29;100252.60;;;7.50
66372;BMP180;53168;51.146;17.120;2023-05-10T01:35:09;100250.60;;;7.50
66372;BMP180;53168;51.146;17.120;2023-05-10T01:37:52;100253.20;;;7.40
66372;BMP180;53168;51.146;17.120;2023-05-10T01:40:37;100252.00;;;7.40
66372;BMP180;53168;51.146;17.120;2023-05-10T01:43:24;100253.80;;;7.40
66372;BMP180;53168;51.146;17.120;2023-05-10T01:46:05;100257.60;;;7.30
66372;BMP180;53168;51.146;17.120;2023-05-10T01:48:52;100248.60;;;7.30
66372;BMP180;53168;51.146;17.120;2023-05-10T01:51:31;100253.00;;;7.24
66372;BMP180;53168;51.146;17.120;2023-05-10T01:54:10;100248.40;;;7.30
66372;BMP180;53168;51.146;17.120;2023-05-10T01:56:50;100250.20;;;7.40
66372;BMP180;53168;51.146;17.120;2023-05-10T01:59:33;100247.80;;;7.40
66372;BMP180;53168;51.146;17.120;2023-05-10T02:02:10;100247.80;;;7.30
66372;BMP180;53168;51.146;17.120;2023-05-10T02:04:45;100239.20;;;7.30
66372;BMP180;53168;51.146;17.120;2023-05-10T02:07:20;100243.40;;;7.30
66372;BMP180;53168;51.146;17.120;2023-05-10T02:09:56;100247.40;;;7.24
66372;BMP180;53168;51.146;17.120;2023-05-10T02:12:33;100241.60;;;7.20
66372;BMP180;53168;51.146;17.120;2023-05-10T02:15:11;100239.00;;;7.18
66372;BMP180;53168;51.146;17.120;2023-05-10T02:17:47;100238.20;;;7.10
66372;BMP180;53168;51.146;17.120;2023-05-10T02:20:22;100231.40;;;7.10
66372;BMP180;53168;51.146;17.120;2023-05-10T02:22:58;100236.80;;;7.20
66372;BMP180;53168;51.146;17.120;2023-05-10T02:25:32;100235.80;;;7.20
66372;BMP180;53168;51.146;17.120;2023-05-10T02:28:08;100231.60;;;7.20
66372;BMP180;53168;51.146;17.120;2023-05-10T02:30:43;100225.80;;;7.20
66372;BMP180;53168;51.146;17.120;2023-05-10T02:33:17;100222.40;;;7.10
66372;BMP180;53168;51.146;17.120;2023-05-10T02:35:53;100225.40;;;7.10
66372;BMP180;53168;51.146;17.120;2023-05-10T02:38:28;100228.80;;;7.10
66372;BMP180;53168;51.146;17.120;2023-05-10T02:41:06;100231.60;;;7.10
66372;BMP180;53168;51.146;17.120;2023-05-10T02:43:43;100226.20;;;7.10
66372;BMP180;53168;51.146;17.120;2023-05-10T02:46:17;100227.80;;;7.10
66372;BMP180;53168;51.146;17.120;2023-05-10T02:48:50;100225.40;;;7.10
66372;BMP180;53168;51.146;17.120;2023-05-10T02:51:30;100223.60;;;7.08
66372;BMP180;53168;51.146;17.120;2023-05-10T02:54:12;100225.80;;;7.10
66372;BMP180;53168;51.146;17.120;2023-05-10T02:56:56;100224.20;;;7.10
66372;BMP180;53168;51.146;17.120;2023-05-10T02:59:30;100222.60;;;7.20
66372;BMP180;53168;51.146;17.120;2023-05-10T03:02:04;100228.80;;;7.20
66372;BMP180;53168;51.146;17.120;2023-05-10T03:04:38;100229.60;;;7.20
66372;BMP180;53168;51.146;17.120;2023-05-10T03:07:11;100226.40;;;7.20
66372;BMP180;53168;51.146;17.120;2023-05-10T03:09:45;100224.20;;;7.20
66372;BMP180;53168;51.146;17.120;2023-05-10T03:12:27;100222.60;;;7.20
66372;BMP180;53168;51.146;17.120;2023-05-10T03:15:13;100226.00;;;7.20
66372;BMP180;53168;51.146;17.120;2023-05-10T03:17:57;100222.20;;;7.20
66372;BMP180;53168;51.146;17.120;2023-05-10T03:20:42;100222.60;;;7.20
66372;BMP180;53168;51.146;17.120;2023-05-10T03:23:29;100224.20;;;7.28
66372;BMP180;53168;51.146;17.120;2023-05-10T03:26:04;100226.40;;;7.40
66372;BMP180;53168;51.146;17.120;2023-05-10T03:28:38;100229.20;;;7.50
66372;BMP180;53168;51.146;17.120;2023-05-10T03:31:12;100228.40;;;7.50
66372;BMP180;53168;51.146;17.120;2023-05-10T03:33:53;100223.80;;;7.50
66372;BMP180;53168;51.146;17.120;2023-05-10T03:36:29;100225.40;;;7.50
66372;BMP180;53168;51.146;17.120;2023-05-10T03:39:03;100226.20;;;7.52
66372;BMP180;53168;51.146;17.120;2023-05-10T03:41:36;100223.80;;;7.60
66372;BMP180;53168;51.146;17.120;2023-05-10T03:44:09;100218.60;;;7.60
66372;BMP180;53168;51.146;17.120;2023-05-10T03:46:42;100219.20;;;7.60
66372;BMP180;53168;51.146;17.120;2023-05-10T03:49:15;100222.40;;;7.70
66372;BMP180;53168;51.146;17.120;2023-05-10T03:51:49;100215.20;;;7.70
66372;BMP180;53168;51.146;17.120;2023-05-10T03:54:25;100216.60;;;7.80
66372;BMP180;53168;51.146;17.120;2023-05-10T03:56:59;100220.60;;;7.88
66372;BMP180;53168;51.146;17.120;2023-05-10T03:59:34;100218.00;;;7.90
66372;BMP180;53168;51.146;17.120;2023-05-10T04:02:07;100218.40;;;7.98
66372;BMP180;53168;51.146;17.120;2023-05-10T04:04:41;100216.00;;;8.00
66372;BMP180;53168;51.146;17.120;2023-05-10T04:07:15;100212.60;;;8.00
66372;BMP180;53168;51.146;17.120;2023-05-10T04:09:48;100216.20;;;8.10
66372;BMP180;53168;51.146;17.120;2023-05-10T04:12:21;100220.20;;;8.10
66372;BMP180;53168;51.146;17.120;2023-05-10T04:14:54;100217.60;;;8.20
66372;BMP180;53168;51.146;17.120;2023-05-10T04:17:27;100203.00;;;8.32
66372;BMP180;53168;51.146;17.120;2023-05-10T04:20:01;100174.40;;;9.38
66372;BMP180;53168;51.146;17.120;2023-05-10T04:22:36;100176.00;;;10.68
66372;BMP180;53168;51.146;17.120;2023-05-10T04:25:12;100169.00;;;11.70
66372;BMP180;53168;51.146;17.120;2023-05-10T04:27:45;100164.60;;;12.56
66372;BMP180;53168;51.146;17.120;2023-05-10T04:30:19;100167.20;;;13.40
66372;BMP180;53168;51.146;17.120;2023-05-10T04:32:52;100157.80;;;13.96
66372;BMP180;53168;51.146;17.120;2023-05-10T04:35:25;100161.00;;;14.54
66372;BMP180;53168;51.146;17.120;2023-05-10T04:37:59;100159.40;;;15.10
66372;BMP180;53168;51.146;17.120;2023-05-10T04:40:32;100151.60;;;15.64
66372;BMP180;53168;51.146;17.120;2023-05-10T04:43:06;100144.00;;;15.90
66372;BMP180;53168;51.146;17.120;2023-05-10T04:45:39;100145.00;;;16.30
66372;BMP180;53168;51.146;17.120;2023-05-10T04:48:12;100142.40;;;16.68
66372;BMP180;53168;51.146;17.120;2023-05-10T04:50:45;100137.40;;;17.20
66372;BMP180;53168;51.146;17.120;2023-05-10T04:53:18;100131.20;;;17.60
66372;BMP180;53168;51.146;17.120;2023-05-10T04:55:52;100127.00;;;17.92
66372;BMP180;53168;51.146;17.120;2023-05-10T04:58:25;100131.40;;;18.30
66372;BMP180;53168;51.146;17.120;2023-05-10T05:01:06;100119.20;;;18.70
66372;BMP180;53168;51.146;17.120;2023-05-10T05:03:40;100114.80;;;19.00
66372;BMP180;53168;51.146;17.120;2023-05-10T05:06:13;100113.40;;;19.42
66372;BMP180;53168;51.146;17.120;2023-05-10T05:08:46;100106.80;;;19.80
66372;BMP180;53168;51.146;17.120;2023-05-10T05:11:21;100101.00;;;20.00
66372;BMP180;53168;51.146;17.120;2023-05-10T05:13:54;100099.60;;;20.20
66372;BMP180;53168;51.146;17.120;2023-05-10T05:16:29;100086.00;;;20.10
66372;BMP180;53168;51.146;17.120;2023-05-10T05:19:03;100085.60;;;20.52
66372;BMP180;53168;51.146;17.120;2023-05-10T05:21:37;100069.60;;;20.70
66372;BMP180;53168;51.146;17.120;2023-05-10T05:24:10;100056.80;;;21.18
66372;BMP180;53168;51.146;17.120;2023-05-10T05:26:44;100051.80;;;21.68
66372;BMP180;53168;51.146;17.120;2023-05-10T05:29:17;100042.60;;;21.60
66372;BMP180;53168;51.146;17.120;2023-05-10T05:31:50;100029.80;;;21.30
66372;BMP180;53168;51.146;17.120;2023-05-10T05:34:26;100028.00;;;21.60
66372;BMP180;53168;51.146;17.120;2023-05-10T05:36:59;100030.80;;;22.06
66372;BMP180;53168;51.146;17.120;2023-05-10T05:39:32;100039.00;;;22.34
66372;BMP180;53168;51.146;17.120;2023-05-10T05:42:06;100046.40;;;22.40
66372;BMP180;53168;51.146;17.120;2023-05-10T05:44:39;100047.20;;;22.40
66372;BMP180;53168;51.146;17.120;2023-05-10T05:47:13;100049.60;;;22.40
66372;BMP180;53168;51.146;17.120;2023-05-10T05:49:46;100049.60;;;22.60
66372;BMP180;53168;51.146;17.120;2023-05-10T05:52:19;100059.20;;;22.46
66372;BMP180;53168;51.146;17.120;2023-05-10T05:54:53;100043.20;;;22.14
66372;BMP180;53168;51.146;17.120;2023-05-10T05:57:26;100041.60;;;22.34
66372;BMP180;53168;51.146;17.120;2023-05-10T05:59:59;100039.00;;;22.64
66372;BMP180;53168;51.146;17.120;2023-05-10T06:02:43;100019.40;;;22.60
66372;BMP180;53168;51.146;17.120;2023-05-10T06:05:17;99999.80;;;22.70
66372;BMP180;53168;51.146;17.120;2023-05-10T06:07:50;99982.60;;;22.50
66372;BMP180;53168;51.146;17.120;2023-05-10T06:10:25;99985.60;;;22.90
66372;BMP180;53168;51.146;17.120;2023-05-10T06:12:58;99988.80;;;23.72
66372;BMP180;53168;51.146;17.120;2023-05-10T06:15:32;100000.00;;;24.40
66372;BMP180;53168;51.146;17.120;2023-05-10T06:18:05;100014.60;;;24.82
66372;BMP180;53168;51.146;17.120;2023-05-10T06:20:40;100040.00;;;25.38
66372;BMP180;53168;51.146;17.120;2023-05-10T06:23:13;100050.00;;;25.40
66372;BMP180;53168;51.146;17.120;2023-05-10T06:25:47;100055.80;;;25.58
66372;BMP180;53168;51.146;17.120;2023-05-10T06:28:20;100067.60;;;25.40
66372;BMP180;53168;51.146;17.120;2023-05-10T06:30:53;100058.00;;;25.10
66372;BMP180;53168;51.146;17.120;2023-05-10T06:33:26;100061.80;;;25.56
66372;BMP180;53168;51.146;17.120;2023-05-10T06:35:59;100064.00;;;26.10
66372;BMP180;53168;51.146;17.120;2023-05-10T06:38:34;100063.20;;;26.10
66372;BMP180;53168;51.146;17.120;2023-05-10T06:41:07;100063.60;;;25.58
66372;BMP180;53168;51.146;17.120;2023-05-10T06:43:41;100065.20;;;25.30
66372;BMP180;53168;51.146;17.120;2023-05-10T06:46:35;100069.00;;;25.48
66372;BMP180;53168;51.146;17.120;2023-05-10T06:49:09;100071.00;;;25.72
66372;BMP180;53168;51.146;17.120;2023-05-10T06:51:42;100089.40;;;26.32
66372;BMP180;53168;51.146;17.120;2023-05-10T06:54:15;100089.20;;;26.40
66372;BMP180;53168;51.146;17.120;2023-05-10T06:56:49;100083.00;;;26.40
66372;BMP180;53168;51.146;17.120;2023-05-10T06:59:22;100088.20;;;26.56
66372;BMP180;53168;51.146;17.120;2023-05-10T07:01:56;100092.40;;;26.32
66372;BMP180;53168;51.146;17.120;2023-05-10T07:04:29;100089.00;;;26.10
66372;BMP180;53168;51.146;17.120;2023-05-10T07:07:02;100092.80;;;25.76
66372;BMP180;53168;51.146;17.120;2023-05-10T07:09:36;100093.00;;;25.90
66372;BMP180;53168;51.146;17.120;2023-05-10T07:12:09;100097.60;;;26.18
66372;BMP180;53168;51.146;17.120;2023-05-10T07:14:45;100121.00;;;26.76
66372;BMP180;53168;51.146;17.120;2023-05-10T07:17:19;100114.40;;;27.00
66372;BMP180;53168;51.146;17.120;2023-05-10T07:19:52;100109.60;;;27.10
66372;BMP180;53168;51.146;17.120;2023-05-10T07:22:25;100117.80;;;27.50
66372;BMP180;53168;51.146;17.120;2023-05-10T07:24:58;100113.80;;;27.40
66372;BMP180;53168;51.146;17.120;2023-05-10T07:27:32;100113.20;;;27.00
66372;BMP180;53168;51.146;17.120;2023-05-10T07:30:07;100101.60;;;26.60
66372;BMP180;53168;51.146;17.120;2023-05-10T07:32:40;100108.00;;;27.32
66372;BMP180;53168;51.146;17.120;2023-05-10T07:35:14;100112.40;;;27.74
66372;BMP180;53168;51.146;17.120;2023-05-10T07:37:47;100108.20;;;27.68
66372;BMP180;53168;51.146;17.120;2023-05-10T07:40:21;100097.20;;;27.30
66372;BMP180;53168;51.146;17.120;2023-05-10T07:42:54;100091.40;;;27.10
66372;BMP180;53168;51.146;17.120;2023-05-10T07:45:27;100095.80;;;27.00
66372;BMP180;53168;51.146;17.120;2023-05-10T07:48:01;100098.20;;;27.52
66372;BMP180;53168;51.146;17.120;2023-05-10T07:50:34;100099.00;;;27.40
66372;BMP180;53168;51.146;17.120;2023-05-10T07:53:07;100099.00;;;27.34
66372;BMP180;53168;51.146;17.120;2023-05-10T07:55:40;100088.20;;;27.70
66372;BMP180;53168;51.146;17.120;2023-05-10T07:58:14;100091.40;;;28.52
66372;BMP180;53168;51.146;17.120;2023-05-10T08:00:47;100090.60;;;28.76
66372;BMP180;53168;51.146;17.120;2023-05-10T08:03:21;100104.80;;;29.10
66372;BMP180;53168;51.146;17.120;2023-05-10T08:05:54;100092.80;;;29.10
66372;BMP180;53168;51.146;17.120;2023-05-10T08:08:28;100087.40;;;29.60
66372;BMP180;53168;51.146;17.120;2023-05-10T08:11:01;100098.20;;;29.90
66372;BMP180;53168;51.146;17.120;2023-05-10T08:13:34;100089.20;;;30.00
66372;BMP180;53168;51.146;17.120;2023-05-10T08:16:08;100092.40;;;29.90
66372;BMP180;53168;51.146;17.120;2023-05-10T08:18:42;100093.40;;;29.60
66372;BMP180;53168;51.146;17.120;2023-05-10T08:21:17;100081.80;;;29.20
66372;BMP180;53168;51.146;17.120;2023-05-10T08:23:50;100080.80;;;29.52
66372;BMP180;53168;51.146;17.120;2023-05-10T08:26:23;100081.00;;;29.96
66372;BMP180;53168;51.146;17.120;2023-05-10T08:28:56;100074.60;;;30.10
66372;BMP180;53168;51.146;17.120;2023-05-10T08:31:29;100085.40;;;30.30
66372;BMP180;53168;51.146;17.120;2023-05-10T08:34:03;100093.00;;;30.50
66372;BMP180;53168;51.146;17.120;2023-05-10T08:36:36;100102.20;;;30.24
66372;BMP180;53168;51.146;17.120;2023-05-10T08:39:09;100084.00;;;30.16
66372;BMP180;53168;51.146;17.120;2023-05-10T08:42:03;100086.80;;;30.62
66372;BMP180;53168;51.146;17.120;2023-05-10T08:44:38;100085.80;;;30.40
66372;BMP180;53168;51.146;17.120;2023-05-10T08:47:12;100089.60;;;30.40
66372;BMP180;53168;51.146;17.120;2023-05-10T08:49:50;100091.80;;;30.50
66372;BMP180;53168;51.146;17.120;2023-05-10T08:52:25;100090.00;;;30.30
66372;BMP180;53168;51.146;17.120;2023-05-10T08:54:59;100085.40;;;30.56
66372;BMP180;53168;51.146;17.120;2023-05-10T08:57:32;100077.20;;;30.80
66372;BMP180;53168;51.146;17.120;2023-05-10T09:00:08;100091.20;;;31.02
66372;BMP180;53168;51.146;17.120;2023-05-10T09:02:43;100085.40;;;30.92
66372;BMP180;53168;51.146;17.120;2023-05-10T09:05:18;100095.40;;;31.10
66372;BMP180;53168;51.146;17.120;2023-05-10T09:07:51;100083.80;;;30.70
66372;BMP180;53168;51.146;17.120;2023-05-10T09:10:27;100088.00;;;30.64
66372;BMP180;53168;51.146;17.120;2023-05-10T09:13:00;100090.60;;;31.18
66372;BMP180;53168;51.146;17.120;2023-05-10T09:15:34;100106.00;;;31.60
66372;BMP180;53168;51.146;17.120;2023-05-10T09:18:07;100091.80;;;31.40
66372;BMP180;53168;51.146;17.120;2023-05-10T09:20:41;100087.80;;;31.26
66372;BMP180;53168;51.146;17.120;2023-05-10T09:23:14;100096.60;;;31.80
66372;BMP180;53168;51.146;17.120;2023-05-10T09:25:47;100097.20;;;31.62
66372;BMP180;53168;51.146;17.120;2023-05-10T09:28:21;100090.40;;;31.70
66372;BMP180;53168;51.146;17.120;2023-05-10T09:30:57;100109.60;;;31.64
66372;BMP180;53168;51.146;17.120;2023-05-10T09:33:30;100101.20;;;31.12
66372;BMP180;53168;51.146;17.120;2023-05-10T09:36:17;100107.00;;;31.10
66372;BMP180;53168;51.146;17.120;2023-05-10T09:38:51;100111.80;;;31.20
66372;BMP180;53168;51.146;17.120;2023-05-10T09:41:25;100112.40;;;31.30
66372;BMP180;53168;51.146;17.120;2023-05-10T09:43:59;100115.20;;;31.40
66372;BMP180;53168;51.146;17.120;2023-05-10T09:46:36;100117.40;;;31.40
66372;BMP180;53168;51.146;17.120;2023-05-10T09:49:11;100126.60;;;30.44
66372;BMP180;53168;51.146;17.120;2023-05-10T09:51:47;100122.00;;;30.14
66372;BMP180;53168;51.146;17.120;2023-05-10T09:54:20;100128.60;;;30.54
66372;BMP180;53168;51.146;17.120;2023-05-10T09:56:55;100117.20;;;30.34
66372;BMP180;53168;51.146;17.120;2023-05-10T09:59:29;100119.00;;;30.50
66372;BMP180;53168;51.146;17.120;2023-05-10T10:02:03;100122.00;;;30.82
66372;BMP180;53168;51.146;17.120;2023-05-10T10:04:42;100119.20;;;31.42
66372;BMP180;53168;51.146;17.120;2023-05-10T10:07:15;100117.20;;;31.60
66372;BMP180;53168;51.146;17.120;2023-05-10T10:09:56;100121.40;;;31.62
66372;BMP180;53168;51.146;17.120;2023-05-10T10:12:29;100113.40;;;31.30
66372;BMP180;53168;51.146;17.120;2023-05-10T10:15:04;100163.80;;;30.90
66372;BMP180;53168;51.146;17.120;2023-05-10T10:17:40;100117.00;;;30.34
66372;BMP180;53168;51.146;17.120;2023-05-10T10:20:15;100111.60;;;30.40
66372;BMP180;53168;51.146;17.120;2023-05-10T10:22:49;100114.00;;;30.20
66372;BMP180;53168;51.146;17.120;2023-05-10T10:25:23;100104.60;;;30.20
66372;BMP180;53168;51.146;17.120;2023-05-10T10:28:14;100115.40;;;30.34
66372;BMP180;53168;51.146;17.120;2023-05-10T10:30:52;100106.80;;;30.52
66372;BMP180;53168;51.146;17.120;2023-05-10T10:33:55;100106.60;;;30.50
66372;BMP180;53168;51.146;17.120;2023-05-10T10:36:30;100148.40;;;28.22
66372;BMP180;53168;51.146;17.120;2023-05-10T10:39:12;100147.20;;;26.34
66372;BMP180;53168;51.146;17.120;2023-05-10T10:41:54;100139.20;;;25.38
66372;BMP180;53168;51.146;17.120;2023-05-10T10:44:37;100147.40;;;24.82
66372;BMP180;53168;51.146;17.120;2023-05-10T10:47:24;100142.80;;;23.98
66372;BMP180;53168;51.146;17.120;2023-05-10T10:50:09;100145.60;;;23.70
66372;BMP180;53168;51.146;17.120;2023-05-10T10:52:45;100137.20;;;23.52
66372;BMP180;53168;51.146;17.120;2023-05-10T10:55:22;100128.80;;;23.50
66372;BMP180;53168;51.146;17.120;2023-05-10T10:57:57;100135.20;;;23.50
66372;BMP180;53168;51.146;17.120;2023-05-10T11:00:35;100139.20;;;23.50
66372;BMP180;53168;51.146;17.120;2023-05-10T11:03:10;100141.60;;;23.20
66372;BMP180;53168;51.146;17.120;2023-05-10T11:05:46;100134.00;;;23.00
66372;BMP180;53168;51.146;17.120;2023-05-10T11:08:27;100136.00;;;22.90
66372;BMP180;53168;51.146;17.120;2023-05-10T11:11:08;100132.40;;;22.70
66372;BMP180;53168;51.146;17.120;2023-05-10T11:13:44;100145.00;;;22.74
66372;BMP180;53168;51.146;17.120;2023-05-10T11:16:24;100128.20;;;22.50
66372;BMP180;53168;51.146;17.120;2023-05-10T11:19:03;100120.00;;;22.50
66372;BMP180;53168;51.146;17.120;2023-05-10T11:21:48;100116.60;;;22.70
66372;BMP180;53168;51.146;17.120;2023-05-10T11:24:25;100128.00;;;22.78
66372;BMP180;53168;51.146;17.120;2023-05-10T11:27:00;100132.60;;;22.72
66372;BMP180;53168;51.146;17.120;2023-05-10T11:29:33;100131.00;;;22.54
66372;BMP180;53168;51.146;17.120;2023-05-10T11:32:07;100119.20;;;22.26
66372;BMP180;53168;51.146;17.120;2023-05-10T11:34:41;100130.80;;;22.30
66372;BMP180;53168;51.146;17.120;2023-05-10T11:37:14;100124.80;;;22.20
66372;BMP180;53168;51.146;17.120;2023-05-10T11:39:49;100117.80;;;22.20
66372;BMP180;53168;51.146;17.120;2023-05-10T11:42:22;100114.20;;;22.30
66372;BMP180;53168;51.146;17.120;2023-05-10T11:44:56;100109.40;;;22.40
66372;BMP180;53168;51.146;17.120;2023-05-10T11:47:29;100115.80;;;22.60
66372;BMP180;53168;51.146;17.120;2023-05-10T11:50:03;100117.40;;;22.60
66372;BMP180;53168;51.146;17.120;2023-05-10T11:52:39;100124.20;;;22.70
66372;BMP180;53168;51.146;17.120;2023-05-10T11:55:13;100127.00;;;22.60
66372;BMP180;53168;51.146;17.120;2023-05-10T11:57:46;100125.20;;;22.46
66372;BMP180;53168;51.146;17.120;2023-05-10T12:00:20;100096.00;;;22.20
66372;BMP180;53168;51.146;17.120;2023-05-10T12:02:54;100124.00;;;22.26
66372;BMP180;53168;51.146;17.120;2023-05-10T12:05:27;100105.80;;;22.16
66372;BMP180;53168;51.146;17.120;2023-05-10T12:08:15;100113.60;;;22.10
66372;BMP180;53168;51.146;17.120;2023-05-10T12:10:48;100118.20;;;22.00
66372;BMP180;53168;51.146;17.120;2023-05-10T12:13:22;100125.20;;;21.80
66372;BMP180;53168;51.146;17.120;2023-05-10T12:15:58;100121.80;;;21.70
66372;BMP180;53168;51.146;17.120;2023-05-10T12:18:32;100123.40;;;21.70
66372;BMP180;53168;51.146;17.120;2023-05-10T12:21:07;100131.40;;;21.80
66372;BMP180;53168;51.146;17.120;2023-05-10T12:23:43;100123.20;;;21.74
66372;BMP180;53168;51.146;17.120;2023-05-10T12:26:18;100116.60;;;21.80
66372;BMP180;53168;51.146;17.120;2023-05-10T12:28:52;100123.00;;;21.76
66372;BMP180;53168;51.146;17.120;2023-05-10T12:31:54;100118.80;;;21.80
66372;BMP180;53168;51.146;17.120;2023-05-10T12:34:32;100113.20;;;21.82
66372;BMP180;53168;51.146;17.120;2023-05-10T12:37:06;100112.40;;;21.90
66372;BMP180;53168;51.146;17.120;2023-05-10T12:39:44;100116.80;;;22.00
66372;BMP180;53168;51.146;17.120;2023-05-10T12:42:18;100107.00;;;21.90
66372;BMP180;53168;51.146;17.120;2023-05-10T12:44:51;100110.20;;;21.90
66372;BMP180;53168;51.146;17.120;2023-05-10T12:47:27;100112.20;;;21.90
66372;BMP180;53168;51.146;17.120;2023-05-10T12:50:01;100109.80;;;22.00
66372;BMP180;53168;51.146;17.120;2023-05-10T12:52:34;100099.80;;;22.10
66372;BMP180;53168;51.146;17.120;2023-05-10T12:55:08;100096.00;;;22.20
66372;BMP180;53168;51.146;17.120;2023-05-10T12:57:42;100097.20;;;22.30
66372;BMP180;53168;51.146;17.120;2023-05-10T13:00:17;100107.60;;;22.50
66372;BMP180;53168;51.146;17.120;2023-05-10T13:02:50;100101.60;;;22.60
66372;BMP180;53168;51.146;17.120;2023-05-10T13:05:24;100093.80;;;22.72
66372;BMP180;53168;51.146;17.120;2023-05-10T13:07:57;100099.00;;;22.90
66372;BMP180;53168;51.146;17.120;2023-05-10T13:10:30;100101.00;;;22.90
66372;BMP180;53168;51.146;17.120;2023-05-10T13:13:04;100105.80;;;23.00
66372;BMP180;53168;51.146;17.120;2023-05-10T13:15:37;100095.80;;;22.90
66372;BMP180;53168;51.146;17.120;2023-05-10T13:18:10;100090.60;;;22.80
66372;BMP180;53168;51.146;17.120;2023-05-10T13:20:44;100100.00;;;22.90
66372;BMP180;53168;51.146;17.120;2023-05-10T13:23:17;100082.00;;;22.90
66372;BMP180;53168;51.146;17.120;2023-05-10T13:25:50;100082.60;;;23.00
66372;BMP180;53168;51.146;17.120;2023-05-10T13:28:23;100092.20;;;23.10
66372;BMP180;53168;51.146;17.120;2023-05-10T13:31:06;100101.40;;;23.00
66372;BMP180;53168;51.146;17.120;2023-05-10T13:33:39;100100.40;;;22.76
66372;BMP180;53168;51.146;17.120;2023-05-10T13:36:12;100092.40;;;22.68
66372;BMP180;53168;51.146;17.120;2023-05-10T13:38:46;100097.80;;;22.44
66372;BMP180;53168;51.146;17.120;2023-05-10T13:41:19;100105.00;;;22.30
66372;BMP180;53168;51.146;17.120;2023-05-10T13:43:52;100090.60;;;22.08
66372;BMP180;53168;51.146;17.120;2023-05-10T13:46:25;100090.40;;;22.00
66372;BMP180;53168;51.146;17.120;2023-05-10T13:48:59;100076.20;;;22.04
66372;BMP180;53168;51.146;17.120;2023-05-10T13:51:32;100072.80;;;22.20
66372;BMP180;53168;51.146;17.120;2023-05-10T13:54:06;100092.00;;;22.20
66372;BMP180;53168;51.146;17.120;2023-05-10T13:56:39;100066.20;;;22.12
66372;BMP180;53168;51.146;17.120;2023-05-10T13:59:12;100071.40;;;22.10
66372;BMP180;53168;51.146;17.120;2023-05-10T14:01:46;100074.20;;;22.00
66372;BMP180;53168;51.146;17.120;2023-05-10T14:04:19;100081.40;;;21.92
66372;BMP180;53168;51.146;17.120;2023-05-10T14:06:52;100074.40;;;21.80
66372;BMP180;53168;51.146;17.120;2023-05-10T14:09:25;100062.60;;;21.82
66372;BMP180;53168;51.146;17.120;2023-05-10T14:11:58;100067.80;;;22.02
66372;BMP180;53168;51.146;17.120;2023-05-10T14:14:31;100065.80;;;22.04
66372;BMP180;53168;51.146;17.120;2023-05-10T14:17:05;100061.00;;;22.10
66372;BMP180;53168;51.146;17.120;2023-05-10T14:19:40;100063.40;;;22.20
66372;BMP180;53168;51.146;17.120;2023-05-10T14:22:13;100054.60;;;22.34
66372;BMP180;53168;51.146;17.120;2023-05-10T14:24:46;100061.00;;;22.40
66372;BMP180;53168;51.146;17.120;2023-05-10T14:27:19;100070.40;;;22.30
66372;BMP180;53168;51.146;17.120;2023-05-10T14:29:53;100076.60;;;22.30
66372;BMP180;53168;51.146;17.120;2023-05-10T14:32:26;100064.80;;;22.14
66372;BMP180;53168;51.146;17.120;2023-05-10T14:35:00;100063.00;;;22.00
66372;BMP180;53168;51.146;17.120;2023-05-10T14:37:33;100064.60;;;21.82